sensor_id;sensor_type;location;lat;lon;timestamp;P1;durP1;ratioP1;P2;durP2;ratioP2
17844;SDS011;9047;53.486;10.218;2023-05-10T00:01:09;3.97;;;3.13;;
17844;SDS011;9047;53.486;10.218;2023-05-10T00:03:38;4.57;;;3.35;;
17844;SDS011;9047;53.486;10.218;2023-05-10T00:06:05;4.53;;;3.08;;
17844;SDS011;9047;53.486;10.218;2023-05-10T00:08:32;5.88;;;3.28;;
17844;SDS011;9047;53.486;10.218;2023-05-10T00:10:59;5.28;;;3.40;;
17844;SDS011;9047;53.486;10.218;2023-05-10T00:13:26;5.10;;;3.20;;
17844;SDS011;9047;53.486;10.218;2023-05-10T00:15:52;6.35;;;3.28;;
17844;SDS011;9047;53.486;10.218;2023-05-10T00:18:19;4.78;;;3.08;;
17844;SDS011;9047;53.486;10.218;2023-05-10T00:20:50;7.78;;;3.50;;
17844;SDS011;9047;53.486;10.218;2023-05-10T00:23:18;5.20;;;3.35;;
17844;SDS011;9047;53.486;10.218;2023-05-10T00:25:47;5.78;;;3.50;;
17844;SDS011;9047;53.486;10.218;2023-05-10T00:28:14;7.05;;;3.25;;
17844;SDS011;9047;53.486;10.218;2023-05-10T00:30:41;5.25;;;3.30;;
17844;SDS011;9047;53.486;10.218;2023-05-10T00:33:08;7.43;;;3.42;;
17844;SDS011;9047;53.486;10.218;2023-05-10T00:35:37;5.20;;;3.40;;
17844;SDS011;9047;53.486;10.218;2023-05-10T00:38:06;4.72;;;3.10;;
17844;SDS011;9047;53.486;10.218;2023-05-10T00:40:35;6.20;;;3.40;;
17844;SDS011;9047;53.486;10.218;2023-05-10T00:43:01;4.65;;;3.33;;
17844;SDS011;9047;53.486;10.218;2023-05-10T00:45:28;4.82;;;3.47;;
17844;SDS011;9047;53.486;10.218;2023-05-10T00:47:56;5.38;;;3.40;;
17844;SDS011;9047;53.486;10.218;2023-05-10T00:50:24;5.47;;;3.30;;
17844;SDS011;9047;53.486;10.218;2023-05-10T00:52:51;5.40;;;2.92;;
17844;SDS011;9047;53.486;10.218;2023-05-10T00:55:20;6.35;;;3.03;;
17844;SDS011;9047;53.486;10.218;2023-05-10T00:57:47;5.85;;;3.40;;
17844;SDS011;9047;53.486;10.218;2023-05-10T01:00:17;7.22;;;3.42;;
17844;SDS011;9047;53.486;10.218;2023-05-10T01:02:44;5.47;;;3.60;;
17844;SDS011;9047;53.486;10.218;2023-05-10T01:05:13;4.75;;;3.40;;
17844;SDS011;9047;53.486;10.218;2023-05-10T01:07:50;4.70;;;3.40;;
17844;SDS011;9047;53.486;10.218;2023-05-10T01:10:21;5.50;;;3.42;;
17844;SDS011;9047;53.486;10.218;2023-05-10T01:12:50;5.03;;;3.22;;
17844;SDS011;9047;53.486;10.218;2023-05-10T01:15:21;5.90;;;3.60;;
17844;SDS011;9047;53.486;10.218;2023-05-10T01:17:49;4.88;;;3.65;;
17844;SDS011;9047;53.486;10.218;2023-05-10T01:20:16;7.55;;;3.50;;
17844;SDS011;9047;53.486;10.218;2023-05-10T01:22:50;5.35;;;3.60;;
17844;SDS011;9047;53.486;10.218;2023-05-10T01:25:51;8.15;;;3.53;;
17844;SDS011;9047;53.486;10.218;2023-05-10T01:28:46;6.82;;;3.38;;
17844;SDS011;9047;53.486;10.218;2023-05-10T01:34:45;6.20;;;3.42;;
17844;SDS011;9047;53.486;10.218;2023-05-10T01:37:21;6.85;;;3.40;;
17844;SDS011;9047;53.486;10.218;2023-05-10T01:39:58;6.35;;;3.50;;
17844;SDS011;9047;53.486;10.218;2023-05-10T01:42:36;5.88;;;3.47;;
17844;SDS011;9047;53.486;10.218;2023-05-10T01:45:12;5.13;;;3.40;;
17844;SDS011;9047;53.486;10.218;2023-05-10T01:47:44;8.05;;;3.50;;
17844;SDS011;9047;53.486;10.218;2023-05-10T01:50:22;5.25;;;3.47;;
17844;SDS011;9047;53.486;10.218;2023-05-10T01:52:54;8.43;;;3.72;;
17844;SDS011;9047;53.486;10.218;2023-05-10T01:55:22;4.82;;;3.10;;
17844;SDS011;9047;53.486;10.218;2023-05-10T01:58:02;6.03;;;3.45;;
17844;SDS011;9047;53.486;10.218;2023-05-10T02:00:39;7.18;;;3.50;;
17844;SDS011;9047;53.486;10.218;2023-05-10T02:03:08;8.45;;;3.65;;
17844;SDS011;9047;53.486;10.218;2023-05-10T02:05:38;4.38;;;3.53;;
17844;SDS011;9047;53.486;10.218;2023-05-10T02:08:07;6.78;;;3.60;;
17844;SDS011;9047;53.486;10.218;2023-05-10T02:10:35;6.05;;;3.88;;
17844;SDS011;9047;53.486;10.218;2023-05-10T02:13:03;5.70;;;3.55;;
17844;SDS011;9047;53.486;10.218;2023-05-10T02:15:33;5.78;;;3.50;;
17844;SDS011;9047;53.486;10.218;2023-05-10T02:18:01;4.63;;;3.40;;
17844;SDS011;9047;53.486;10.218;2023-05-10T02:20:30;7.72;;;3.83;;
17844;SDS011;9047;53.486;10.218;2023-05-10T02:22:59;6.30;;;3.38;;
17844;SDS011;9047;53.486;10.218;2023-05-10T02:25:28;5.35;;;3.60;;
17844;SDS011;9047;53.486;10.218;2023-05-10T02:27:55;5.82;;;3.60;;
17844;SDS011;9047;53.486;10.218;2023-05-10T02:30:24;8.00;;;3.65;;
17844;SDS011;9047;53.486;10.218;2023-05-10T02:32:51;5.13;;;3.35;;
17844;SDS011;9047;53.486;10.218;2023-05-10T02:35:19;6.80;;;3.67;;
17844;SDS011;9047;53.486;10.218;2023-05-10T02:37:47;8.98;;;3.50;;
17844;SDS011;9047;53.486;10.218;2023-05-10T02:40:16;8.02;;;3.40;;
17844;SDS011;9047;53.486;10.218;2023-05-10T02:42:43;4.60;;;3.35;;
17844;SDS011;9047;53.486;10.218;2023-05-10T02:45:12;7.28;;;3.80;;
17844;SDS011;9047;53.486;10.218;2023-05-10T02:47:41;6.35;;;3.50;;
17844;SDS011;9047;53.486;10.218;2023-05-10T02:50:11;5.38;;;3.60;;
17844;SDS011;9047;53.486;10.218;2023-05-10T02:52:39;6.38;;;3.60;;
17844;SDS011;9047;53.486;10.218;2023-05-10T02:55:09;5.20;;;3.85;;
17844;SDS011;9047;53.486;10.218;2023-05-10T02:57:40;5.53;;;3.80;;
17844;SDS011;9047;53.486;10.218;2023-05-10T03:00:14;8.55;;;3.80;;
17844;SDS011;9047;53.486;10.218;2023-05-10T03:02:41;8.00;;;3.53;;
17844;SDS011;9047;53.486;10.218;2023-05-10T03:05:08;7.88;;;3.75;;
17844;SDS011;9047;53.486;10.218;2023-05-10T03:07:35;7.00;;;3.63;;
17844;SDS011;9047;53.486;10.218;2023-05-10T03:10:02;6.88;;;3.63;;
17844;SDS011;9047;53.486;10.218;2023-05-10T03:12:33;7.70;;;3.83;;
17844;SDS011;9047;53.486;10.218;2023-05-10T03:15:13;8.32;;;4.10;;
17844;SDS011;9047;53.486;10.218;2023-05-10T03:17:50;7.70;;;3.92;;
17844;SDS011;9047;53.486;10.218;2023-05-10T03:20:22;6.63;;;3.63;;
17844;SDS011;9047;53.486;10.218;2023-05-10T03:22:53;8.90;;;3.95;;
17844;SDS011;9047;53.486;10.218;2023-05-10T03:25:31;4.57;;;3.50;;
17844;SDS011;9047;53.486;10.218;2023-05-10T03:27:59;5.10;;;3.55;;
17844;SDS011;9047;53.486;10.218;2023-05-10T03:30:28;6.10;;;3.88;;
17844;SDS011;9047;53.486;10.218;2023-05-10T03:32:55;6.90;;;4.03;;
17844;SDS011;9047;53.486;10.218;2023-05-10T03:35:22;8.40;;;3.70;;
17844;SDS011;9047;53.486;10.218;2023-05-10T03:37:50;6.57;;;3.85;;
17844;SDS011;9047;53.486;10.218;2023-05-10T03:40:17;6.75;;;3.63;;
17844;SDS011;9047;53.486;10.218;2023-05-10T03:42:44;5.50;;;3.75;;
17844;SDS011;9047;53.486;10.218;2023-05-10T03:45:12;5.30;;;3.90;;
17844;SDS011;9047;53.486;10.218;2023-05-10T03:47:41;9.18;;;3.85;;
17844;SDS011;9047;53.486;10.218;2023-05-10T03:50:08;5.97;;;3.70;;
17844;SDS011;9047;53.486;10.218;2023-05-10T03:52:37;9.60;;;4.00;;
17844;SDS011;9047;53.486;10.218;2023-05-10T03:55:05;5.32;;;3.78;;
17844;SDS011;9047;53.486;10.218;2023-05-10T03:57:33;5.72;;;3.97;;
17844;SDS011;9047;53.486;10.218;2023-05-10T04:00:00;7.13;;;4.35;;
17844;SDS011;9047;53.486;10.218;2023-05-10T04:02:29;7.85;;;3.85;;
17844;SDS011;9047;53.486;10.218;2023-05-10T04:04:56;6.72;;;3.80;;
17844;SDS011;9047;53.486;10.218;2023-05-10T04:07:22;8.43;;;3.63;;
17844;SDS011;9047;53.486;10.218;2023-05-10T04:09:50;6.45;;;4.15;;
17844;SDS011;9047;53.486;10.218;2023-05-10T04:12:17;6.45;;;3.90;;
17844;SDS011;9047;53.486;10.218;2023-05-10T04:14:47;6.38;;;3.80;;
17844;SDS011;9047;53.486;10.218;2023-05-10T04:17:14;6.40;;;4.10;;
17844;SDS011;9047;53.486;10.218;2023-05-10T04:19:42;7.68;;;4.30;;
17844;SDS011;9047;53.486;10.218;2023-05-10T04:22:09;5.07;;;3.80;;
17844;SDS011;9047;53.486;10.218;2023-05-10T04:24:38;7.13;;;4.20;;
17844;SDS011;9047;53.486;10.218;2023-05-10T04:27:05;6.65;;;3.95;;
17844;SDS011;9047;53.486;10.218;2023-05-10T04:29:32;4.25;;;3.60;;
17844;SDS011;9047;53.486;10.218;2023-05-10T04:31:59;5.53;;;3.80;;
17844;SDS011;9047;53.486;10.218;2023-05-10T04:34:26;6.32;;;3.78;;
17844;SDS011;9047;53.486;10.218;2023-05-10T04:36:57;6.43;;;3.60;;
17844;SDS011;9047;53.486;10.218;2023-05-10T04:39:27;4.90;;;4.03;;
17844;SDS011;9047;53.486;10.218;2023-05-10T04:41:54;6.35;;;4.15;;
17844;SDS011;9047;53.486;10.218;2023-05-10T04:44:21;5.82;;;4.00;;
17844;SDS011;9047;53.486;10.218;2023-05-10T04:46:48;5.00;;;3.83;;
17844;SDS011;9047;53.486;10.218;2023-05-10T04:49:15;7.40;;;4.32;;
17844;SDS011;9047;53.486;10.218;2023-05-10T04:51:43;6.40;;;4.30;;
17844;SDS011;9047;53.486;10.218;2023-05-10T04:54:12;8.43;;;4.20;;
17844;SDS011;9047;53.486;10.218;2023-05-10T04:56:39;7.97;;;3.97;;
17844;SDS011;9047;53.486;10.218;2023-05-10T04:59:06;8.90;;;4.18;;
17844;SDS011;9047;53.486;10.218;2023-05-10T05:01:38;6.13;;;4.25;;
17844;SDS011;9047;53.486;10.218;2023-05-10T05:04:06;5.78;;;4.03;;
17844;SDS011;9047;53.486;10.218;2023-05-10T05:06:37;5.25;;;4.10;;
17844;SDS011;9047;53.486;10.218;2023-05-10T05:09:22;7.53;;;4.05;;
17844;SDS011;9047;53.486;10.218;2023-05-10T05:11:49;6.65;;;3.90;;
17844;SDS011;9047;53.486;10.218;2023-05-10T05:14:17;7.72;;;4.13;;
17844;SDS011;9047;53.486;10.218;2023-05-10T05:16:47;4.93;;;4.13;;
17844;SDS011;9047;53.486;10.218;2023-05-10T05:19:14;6.13;;;4.35;;
17844;SDS011;9047;53.486;10.218;2023-05-10T05:21:42;7.28;;;3.95;;
17844;SDS011;9047;53.486;10.218;2023-05-10T05:24:10;6.50;;;4.28;;
17844;SDS011;9047;53.486;10.218;2023-05-10T05:26:39;6.10;;;3.95;;
17844;SDS011;9047;53.486;10.218;2023-05-10T05:29:06;6.10;;;4.03;;
17844;SDS011;9047;53.486;10.218;2023-05-10T05:31:33;6.45;;;4.22;;
17844;SDS011;9047;53.486;10.218;2023-05-10T05:34:00;5.18;;;3.92;;
17844;SDS011;9047;53.486;10.218;2023-05-10T05:36:27;5.55;;;3.95;;
17844;SDS011;9047;53.486;10.218;2023-05-10T05:38:54;5.85;;;4.00;;
17844;SDS011;9047;53.486;10.218;2023-05-10T05:41:21;5.30;;;3.80;;
17844;SDS011;9047;53.486;10.218;2023-05-10T05:43:52;6.85;;;3.60;;
17844;SDS011;9047;53.486;10.218;2023-05-10T05:46:20;6.65;;;3.85;;
17844;SDS011;9047;53.486;10.218;2023-05-10T05:48:50;7.22;;;3.80;;
17844;SDS011;9047;53.486;10.218;2023-05-10T05:51:17;5.88;;;4.13;;
17844;SDS011;9047;53.486;10.218;2023-05-10T05:53:46;6.10;;;4.00;;
17844;SDS011;9047;53.486;10.218;2023-05-10T05:56:13;9.15;;;4.00;;
17844;SDS011;9047;53.486;10.218;2023-05-10T05:58:40;6.03;;;4.00;;
17844;SDS011;9047;53.486;10.218;2023-05-10T06:01:10;5.15;;;3.88;;
17844;SDS011;9047;53.486;10.218;2023-05-10T06:03:37;5.40;;;4.15;;
17844;SDS011;9047;53.486;10.218;2023-05-10T06:06:04;5.32;;;3.70;;
17844;SDS011;9047;53.486;10.218;2023-05-10T06:08:31;4.50;;;3.50;;
17844;SDS011;9047;53.486;10.218;2023-05-10T06:10:58;5.38;;;3.38;;
17844;SDS011;9047;53.486;10.218;2023-05-10T06:13:25;5.30;;;3.60;;
17844;SDS011;9047;53.486;10.218;2023-05-10T06:15:56;6.43;;;3.95;;
17844;SDS011;9047;53.486;10.218;2023-05-10T06:18:26;5.57;;;3.42;;
17844;SDS011;9047;53.486;10.218;2023-05-10T06:20:53;5.10;;;3.50;;
17844;SDS011;9047;53.486;10.218;2023-05-10T06:23:20;7.13;;;3.78;;
17844;SDS011;9047;53.486;10.218;2023-05-10T06:25:47;5.15;;;3.58;;
17844;SDS011;9047;53.486;10.218;2023-05-10T06:28:28;6.38;;;3.50;;
17844;SDS011;9047;53.486;10.218;2023-05-10T06:30:56;6.45;;;3.58;;
17844;SDS011;9047;53.486;10.218;2023-05-10T06:33:28;5.28;;;3.92;;
17844;SDS011;9047;53.486;10.218;2023-05-10T06:35:57;5.80;;;3.20;;
17844;SDS011;9047;53.486;10.218;2023-05-10T06:38:26;3.88;;;3.47;;
17844;SDS011;9047;53.486;10.218;2023-05-10T06:40:53;5.45;;;3.50;;
17844;SDS011;9047;53.486;10.218;2023-05-10T06:43:20;6.50;;;3.42;;
17844;SDS011;9047;53.486;10.218;2023-05-10T06:45:49;6.22;;;3.60;;
17844;SDS011;9047;53.486;10.218;2023-05-10T06:48:16;4.93;;;3.70;;
17844;SDS011;9047;53.486;10.218;2023-05-10T06:50:44;5.85;;;4.57;;
17844;SDS011;9047;53.486;10.218;2023-05-10T06:53:11;5.95;;;3.75;;
17844;SDS011;9047;53.486;10.218;2023-05-10T06:55:38;5.32;;;3.50;;
17844;SDS011;9047;53.486;10.218;2023-05-10T06:58:05;5.35;;;3.55;;
17844;SDS011;9047;53.486;10.218;2023-05-10T07:00:32;5.68;;;3.72;;
17844;SDS011;9047;53.486;10.218;2023-05-10T07:02:59;6.53;;;3.88;;
17844;SDS011;9047;53.486;10.218;2023-05-10T07:05:25;5.65;;;3.75;;
17844;SDS011;9047;53.486;10.218;2023-05-10T07:07:55;4.53;;;3.45;;
17844;SDS011;9047;53.486;10.218;2023-05-10T07:10:22;5.65;;;3.58;;
17844;SDS011;9047;53.486;10.218;2023-05-10T07:12:49;4.95;;;3.38;;
17844;SDS011;9047;53.486;10.218;2023-05-10T07:15:16;7.28;;;3.50;;
17844;SDS011;9047;53.486;10.218;2023-05-10T07:17:43;5.65;;;4.10;;
17844;SDS011;9047;53.486;10.218;2023-05-10T07:20:10;7.15;;;4.32;;
17844;SDS011;9047;53.486;10.218;2023-05-10T07:22:40;7.30;;;3.80;;
17844;SDS011;9047;53.486;10.218;2023-05-10T07:25:11;4.53;;;3.90;;
17844;SDS011;9047;53.486;10.218;2023-05-10T07:27:38;5.30;;;3.55;;
17844;SDS011;9047;53.486;10.218;2023-05-10T07:30:08;6.50;;;3.60;;
17844;SDS011;9047;53.486;10.218;2023-05-10T07:32:36;7.00;;;4.03;;
17844;SDS011;9047;53.486;10.218;2023-05-10T07:35:04;5.00;;;3.50;;
17844;SDS011;9047;53.486;10.218;2023-05-10T07:37:32;3.83;;;3.47;;
17844;SDS011;9047;53.486;10.218;2023-05-10T07:39:59;6.38;;;3.67;;
17844;SDS011;9047;53.486;10.218;2023-05-10T07:42:27;6.30;;;3.40;;
17844;SDS011;9047;53.486;10.218;2023-05-10T07:44:53;6.53;;;3.80;;
17844;SDS011;9047;53.486;10.218;2023-05-10T07:47:20;7.22;;;3.60;;
17844;SDS011;9047;53.486;10.218;2023-05-10T07:49:47;4.00;;;3.47;;
17844;SDS011;9047;53.486;10.218;2023-05-10T07:52:13;5.00;;;3.30;;
17844;SDS011;9047;53.486;10.218;2023-05-10T07:54:40;5.78;;;3.55;;
17844;SDS011;9047;53.486;10.218;2023-05-10T07:57:07;5.43;;;3.40;;
17844;SDS011;9047;53.486;10.218;2023-05-10T07:59:36;5.63;;;3.80;;
17844;SDS011;9047;53.486;10.218;2023-05-10T08:02:05;6.07;;;3.78;;
17844;SDS011;9047;53.486;10.218;2023-05-10T08:04:33;6.53;;;3.45;;
17844;SDS011;9047;53.486;10.218;2023-05-10T08:07:02;6.10;;;3.47;;
17844;SDS011;9047;53.486;10.218;2023-05-10T08:09:29;4.68;;;3.53;;
17844;SDS011;9047;53.486;10.218;2023-05-10T08:11:58;5.53;;;3.95;;
17844;SDS011;9047;53.486;10.218;2023-05-10T08:14:27;4.35;;;3.50;;
17844;SDS011;9047;53.486;10.218;2023-05-10T08:16:56;7.35;;;4.00;;
17844;SDS011;9047;53.486;10.218;2023-05-10T08:19:22;7.07;;;3.80;;
17844;SDS011;9047;53.486;10.218;2023-05-10T08:21:49;6.05;;;3.63;;
17844;SDS011;9047;53.486;10.218;2023-05-10T08:24:16;7.97;;;4.22;;
17844;SDS011;9047;53.486;10.218;2023-05-10T08:26:43;5.30;;;3.85;;
17844;SDS011;9047;53.486;10.218;2023-05-10T08:29:13;6.63;;;3.95;;
17844;SDS011;9047;53.486;10.218;2023-05-10T08:31:39;5.03;;;3.70;;
17844;SDS011;9047;53.486;10.218;2023-05-10T08:34:08;4.43;;;3.88;;
17844;SDS011;9047;53.486;10.218;2023-05-10T08:36:34;7.63;;;3.90;;
17844;SDS011;9047;53.486;10.218;2023-05-10T08:39:01;5.22;;;4.03;;
17844;SDS011;9047;53.486;10.218;2023-05-10T08:41:29;6.93;;;3.80;;
17844;SDS011;9047;53.486;10.218;2023-05-10T08:43:59;7.47;;;3.90;;
17844;SDS011;9047;53.486;10.218;2023-05-10T08:46:30;4.45;;;3.70;;
17844;SDS011;9047;53.486;10.218;2023-05-10T08:48:59;6.53;;;3.90;;
17844;SDS011;9047;53.486;10.218;2023-05-10T08:51:31;6.88;;;4.28;;
17844;SDS011;9047;53.486;10.218;2023-05-10T08:54:01;5.05;;;3.60;;
17844;SDS011;9047;53.486;10.218;2023-05-10T08:56:30;5.57;;;3.75;;
17844;SDS011;9047;53.486;10.218;2023-05-10T08:58:57;6.53;;;3.65;;
17844;SDS011;9047;53.486;10.218;2023-05-10T09:01:24;6.50;;;4.22;;
17844;SDS011;9047;53.486;10.218;2023-05-10T09:03:57;5.53;;;4.18;;
17844;SDS011;9047;53.486;10.218;2023-05-10T09:06:24;5.40;;;3.67;;
17844;SDS011;9047;53.486;10.218;2023-05-10T09:08:53;5.57;;;3.75;;
17844;SDS011;9047;53.486;10.218;2023-05-10T09:11:20;5.88;;;3.50;;
17844;SDS011;9047;53.486;10.218;2023-05-10T09:13:50;7.25;;;3.90;;
17844;SDS011;9047;53.486;10.218;2023-05-10T09:16:18;7.03;;;3.85;;
17844;SDS011;9047;53.486;10.218;2023-05-10T09:18:45;7.50;;;3.60;;
17844;SDS011;9047;53.486;10.218;2023-05-10T09:21:11;6.15;;;4.18;;
17844;SDS011;9047;53.486;10.218;2023-05-10T09:23:42;5.18;;;3.88;;
17844;SDS011;9047;53.486;10.218;2023-05-10T09:26:10;6.53;;;3.88;;
17844;SDS011;9047;53.486;10.218;2023-05-10T09:28:50;6.78;;;4.28;;
17844;SDS011;9047;53.486;10.218;2023-05-10T09:31:17;4.95;;;4.40;;
17844;SDS011;9047;53.486;10.218;2023-05-10T09:33:44;4.80;;;4.03;;
17844;SDS011;9047;53.486;10.218;2023-05-10T09:36:12;4.60;;;3.60;;
17844;SDS011;9047;53.486;10.218;2023-05-10T09:38:45;6.03;;;3.92;;
17844;SDS011;9047;53.486;10.218;2023-05-10T09:41:18;5.43;;;4.18;;
17844;SDS011;9047;53.486;10.218;2023-05-10T09:43:46;6.97;;;4.45;;
17844;SDS011;9047;53.486;10.218;2023-05-10T09:46:13;7.32;;;4.57;;
17844;SDS011;9047;53.486;10.218;2023-05-10T09:48:41;6.40;;;4.10;;
17844;SDS011;9047;53.486;10.218;2023-05-10T09:51:10;6.82;;;4.00;;
17844;SDS011;9047;53.486;10.218;2023-05-10T09:53:37;7.00;;;3.58;;
17844;SDS011;9047;53.486;10.218;2023-05-10T09:56:04;7.15;;;4.20;;
17844;SDS011;9047;53.486;10.218;2023-05-10T09:58:32;7.28;;;4.60;;
17844;SDS011;9047;53.486;10.218;2023-05-10T10:01:03;7.00;;;4.03;;
17844;SDS011;9047;53.486;10.218;2023-05-10T10:03:30;7.88;;;4.38;;
17844;SDS011;9047;53.486;10.218;2023-05-10T10:05:57;6.97;;;4.82;;
17844;SDS011;9047;53.486;10.218;2023-05-10T10:08:23;8.80;;;4.43;;
17844;SDS011;9047;53.486;10.218;2023-05-10T10:10:51;10.73;;;5.15;;
17844;SDS011;9047;53.486;10.218;2023-05-10T10:13:17;7.85;;;4.80;;
17844;SDS011;9047;53.486;10.218;2023-05-10T10:15:46;8.52;;;4.90;;
17844;SDS011;9047;53.486;10.218;2023-05-10T10:18:16;10.38;;;5.28;;
17844;SDS011;9047;53.486;10.218;2023-05-10T10:20:48;5.82;;;4.50;;
17844;SDS011;9047;53.486;10.218;2023-05-10T10:23:15;6.75;;;5.22;;
17844;SDS011;9047;53.486;10.218;2023-05-10T10:25:42;7.78;;;5.50;;
17844;SDS011;9047;53.486;10.218;2023-05-10T10:28:16;9.18;;;5.75;;
17844;SDS011;9047;53.486;10.218;2023-05-10T10:30:54;8.57;;;6.05;;
17844;SDS011;9047;53.486;10.218;2023-05-10T10:33:32;10.23;;;6.85;;
17844;SDS011;9047;53.486;10.218;2023-05-10T10:36:05;8.32;;;6.03;;
17844;SDS011;9047;53.486;10.218;2023-05-10T10:38:35;8.52;;;6.43;;
17844;SDS011;9047;53.486;10.218;2023-05-10T10:41:09;7.43;;;6.32;;
17844;SDS011;9047;53.486;10.218;2023-05-10T10:43:37;10.57;;;7.25;;
17844;SDS011;9047;53.486;10.218;2023-05-10T10:46:11;9.27;;;6.90;;
17844;SDS011;9047;53.486;10.218;2023-05-10T10:48:39;8.63;;;7.10;;
17844;SDS011;9047;53.486;10.218;2023-05-10T10:51:06;8.05;;;6.93;;
17844;SDS011;9047;53.486;10.218;2023-05-10T10:53:33;10.40;;;7.10;;
17844;SDS011;9047;53.486;10.218;2023-05-10T10:56:06;8.50;;;6.75;;
17844;SDS011;9047;53.486;10.218;2023-05-10T10:58:34;8.60;;;7.03;;
17844;SDS011;9047;53.486;10.218;2023-05-10T11:01:13;8.98;;;7.13;;
17844;SDS011;9047;53.486;10.218;2023-05-10T11:03:41;9.88;;;7.55;;
17844;SDS011;9047;53.486;10.218;2023-05-10T11:06:40;10.77;;;7.38;;
17844;SDS011;9047;53.486;10.218;2023-05-10T11:09:07;10.88;;;7.00;;
17844;SDS011;9047;53.486;10.218;2023-05-10T11:11:36;7.97;;;6.82;;
17844;SDS011;9047;53.486;10.218;2023-05-10T11:14:15;7.80;;;6.80;;
17844;SDS011;9047;53.486;10.218;2023-05-10T11:16:47;8.75;;;6.60;;
17844;SDS011;9047;53.486;10.218;2023-05-10T11:19:15;10.65;;;7.70;;
17844;SDS011;9047;53.486;10.218;2023-05-10T11:21:46;8.82;;;6.72;;
17844;SDS011;9047;53.486;10.218;2023-05-10T11:24:14;9.38;;;7.13;;
17844;SDS011;9047;53.486;10.218;2023-05-10T11:26:41;7.85;;;6.70;;
17844;SDS011;9047;53.486;10.218;2023-05-10T11:29:08;9.38;;;7.00;;
17844;SDS011;9047;53.486;10.218;2023-05-10T11:31:35;8.68;;;7.07;;
17844;SDS011;9047;53.486;10.218;2023-05-10T11:34:10;9.30;;;7.13;;
17844;SDS011;9047;53.486;10.218;2023-05-10T11:36:37;10.02;;;7.30;;
17844;SDS011;9047;53.486;10.218;2023-05-10T11:39:05;10.07;;;7.18;;
17844;SDS011;9047;53.486;10.218;2023-05-10T11:41:32;9.98;;;7.35;;
17844;SDS011;9047;53.486;10.218;2023-05-10T11:43:58;8.63;;;7.40;;
17844;SDS011;9047;53.486;10.218;2023-05-10T11:46:26;10.65;;;7.03;;
17844;SDS011;9047;53.486;10.218;2023-05-10T11:48:55;9.45;;;7.38;;
17844;SDS011;9047;53.486;10.218;2023-05-10T11:51:27;9.25;;;7.35;;
17844;SDS011;9047;53.486;10.218;2023-05-10T11:53:56;9.05;;;7.35;;
17844;SDS011;9047;53.486;10.218;2023-05-10T11:56:23;8.75;;;6.93;;
17844;SDS011;9047;53.486;10.218;2023-05-10T11:58:54;8.43;;;7.15;;
17844;SDS011;9047;53.486;10.218;2023-05-10T12:01:22;11.68;;;7.25;;
17844;SDS011;9047;53.486;10.218;2023-05-10T12:03:53;10.27;;;8.10;;
17844;SDS011;9047;53.486;10.218;2023-05-10T12:06:25;10.90;;;7.78;;
17844;SDS011;9047;53.486;10.218;2023-05-10T12:08:57;13.43;;;8.45;;
17844;SDS011;9047;53.486;10.218;2023-05-10T12:11:28;11.90;;;7.70;;
17844;SDS011;9047;53.486;10.218;2023-05-10T12:13:56;9.38;;;7.80;;
17844;SDS011;9047;53.486;10.218;2023-05-10T12:16:23;12.60;;;8.35;;
17844;SDS011;9047;53.486;10.218;2023-05-10T12:18:55;12.75;;;8.10;;
17844;SDS011;9047;53.486;10.218;2023-05-10T12:21:23;11.65;;;8.98;;
17844;SDS011;9047;53.486;10.218;2023-05-10T12:23:52;11.23;;;9.07;;
17844;SDS011;9047;53.486;10.218;2023-05-10T12:26:21;10.38;;;8.43;;
17844;SDS011;9047;53.486;10.218;2023-05-10T12:28:52;9.98;;;8.23;;
17844;SDS011;9047;53.486;10.218;2023-05-10T12:31:19;8.70;;;7.28;;
17844;SDS011;9047;53.486;10.218;2023-05-10T12:33:46;9.45;;;7.13;;
17844;SDS011;9047;53.486;10.218;2023-05-10T12:36:14;8.40;;;7.38;;
17844;SDS011;9047;53.486;10.218;2023-05-10T12:38:43;8.23;;;7.28;;
17844;SDS011;9047;53.486;10.218;2023-05-10T12:41:14;9.88;;;7.80;;
17844;SDS011;9047;53.486;10.218;2023-05-10T12:43:43;10.98;;;8.10;;
17844;SDS011;9047;53.486;10.218;2023-05-10T12:46:12;9.02;;;7.45;;
17844;SDS011;9047;53.486;10.218;2023-05-10T12:48:40;7.45;;;6.63;;
17844;SDS011;9047;53.486;10.218;2023-05-10T12:51:17;10.18;;;7.20;;
17844;SDS011;9047;53.486;10.218;2023-05-10T12:53:46;7.20;;;6.47;;
17844;SDS011;9047;53.486;10.218;2023-05-10T12:56:16;9.23;;;7.15;;
17844;SDS011;9047;53.486;10.218;2023-05-10T12:58:43;9.57;;;7.07;;
17844;SDS011;9047;53.486;10.218;2023-05-10T13:01:12;7.43;;;6.25;;
17844;SDS011;9047;53.486;10.218;2023-05-10T13:03:39;7.55;;;6.25;;
17844;SDS011;9047;53.486;10.218;2023-05-10T13:06:08;6.13;;;5.25;;
17844;SDS011;9047;53.486;10.218;2023-05-10T13:08:35;7.72;;;5.50;;
17844;SDS011;9047;53.486;10.218;2023-05-10T13:11:02;7.50;;;6.38;;
17844;SDS011;9047;53.486;10.218;2023-05-10T13:13:30;6.75;;;5.18;;
17844;SDS011;9047;53.486;10.218;2023-05-10T13:15:57;6.85;;;5.70;;
17844;SDS011;9047;53.486;10.218;2023-05-10T13:18:24;6.85;;;6.13;;
17844;SDS011;9047;53.486;10.218;2023-05-10T13:20:51;7.78;;;6.30;;
17844;SDS011;9047;53.486;10.218;2023-05-10T13:23:19;8.27;;;6.22;;
17844;SDS011;9047;53.486;10.218;2023-05-10T13:25:46;6.95;;;6.10;;
17844;SDS011;9047;53.486;10.218;2023-05-10T13:28:16;7.57;;;6.05;;
17844;SDS011;9047;53.486;10.218;2023-05-10T13:30:44;6.53;;;5.82;;
17844;SDS011;9047;53.486;10.218;2023-05-10T13:33:11;6.60;;;5.93;;
17844;SDS011;9047;53.486;10.218;2023-05-10T13:35:38;6.65;;;5.82;;
17844;SDS011;9047;53.486;10.218;2023-05-10T13:38:05;6.43;;;4.88;;
17844;SDS011;9047;53.486;10.218;2023-05-10T13:40:32;5.88;;;5.03;;
17844;SDS011;9047;53.486;10.218;2023-05-10T13:43:00;6.75;;;5.80;;
17844;SDS011;9047;53.486;10.218;2023-05-10T13:45:27;6.75;;;5.43;;
17844;SDS011;9047;53.486;10.218;2023-05-10T13:47:56;6.30;;;5.53;;
17844;SDS011;9047;53.486;10.218;2023-05-10T13:50:23;7.07;;;5.53;;
17844;SDS011;9047;53.486;10.218;2023-05-10T13:52:50;5.95;;;5.30;;
17844;SDS011;9047;53.486;10.218;2023-05-10T13:55:16;6.43;;;5.20;;
17844;SDS011;9047;53.486;10.218;2023-05-10T13:57:43;6.25;;;5.57;;
17844;SDS011;9047;53.486;10.218;2023-05-10T14:00:11;8.15;;;5.32;;
17844;SDS011;9047;53.486;10.218;2023-05-10T14:02:38;6.57;;;5.35;;
17844;SDS011;9047;53.486;10.218;2023-05-10T14:05:07;6.28;;;5.28;;
17844;SDS011;9047;53.486;10.218;2023-05-10T14:07:34;5.93;;;5.32;;
17844;SDS011;9047;53.486;10.218;2023-05-10T14:10:01;10.85;;;6.72;;
17844;SDS011;9047;53.486;10.218;2023-05-10T14:12:31;7.13;;;5.53;;
17844;SDS011;9047;53.486;10.218;2023-05-10T14:14:59;6.78;;;5.55;;
17844;SDS011;9047;53.486;10.218;2023-05-10T14:17:29;7.15;;;5.75;;
17844;SDS011;9047;53.486;10.218;2023-05-10T14:19:56;6.40;;;4.85;;
17844;SDS011;9047;53.486;10.218;2023-05-10T14:22:24;6.68;;;5.00;;
17844;SDS011;9047;53.486;10.218;2023-05-10T14:24:51;7.25;;;5.38;;
17844;SDS011;9047;53.486;10.218;2023-05-10T14:27:18;6.07;;;5.47;;
17844;SDS011;9047;53.486;10.218;2023-05-10T14:29:44;6.20;;;4.93;;
17844;SDS011;9047;53.486;10.218;2023-05-10T14:32:11;6.40;;;5.47;;
17844;SDS011;9047;53.486;10.218;2023-05-10T14:34:38;5.75;;;5.15;;
17844;SDS011;9047;53.486;10.218;2023-05-10T14:37:05;8.05;;;5.60;;
17844;SDS011;9047;53.486;10.218;2023-05-10T14:39:34;6.70;;;5.80;;
17844;SDS011;9047;53.486;10.218;2023-05-10T14:42:01;6.28;;;5.65;;
17844;SDS011;9047;53.486;10.218;2023-05-10T14:44:30;7.75;;;6.40;;
17844;SDS011;9047;53.486;10.218;2023-05-10T14:46:57;6.57;;;5.43;;
17844;SDS011;9047;53.486;10.218;2023-05-10T14:49:24;8.00;;;5.72;;
17844;SDS011;9047;53.486;10.218;2023-05-10T14:51:51;6.32;;;5.72;;
17844;SDS011;9047;53.486;10.218;2023-05-10T14:54:18;6.57;;;5.82;;
17844;SDS011;9047;53.486;10.218;2023-05-10T14:56:47;7.55;;;5.75;;
17844;SDS011;9047;53.486;10.218;2023-05-10T14:59:14;6.57;;;5.93;;
17844;SDS011;9047;53.486;10.218;2023-05-10T15:01:41;7.20;;;6.10;;